createdAt,value
2023-05-04T00:01:01.106Z,4.77
2023-05-04T00:03:28.851Z,5.00
2023-05-04T00:05:56.923Z,5.00
2023-05-04T00:08:24.742Z,5.27
2023-05-04T00:10:54.418Z,5.23
2023-05-04T00:13:22.132Z,5.27
2023-05-04T00:15:49.759Z,5.03
2023-05-04T00:18:17.435Z,4.80
2023-05-04T00:20:45.244Z,4.97
2023-05-04T00:23:12.855Z,5.03
2023-05-04T00:25:40.524Z,4.70
2023-05-04T00:28:09.515Z,4.87
2023-05-04T00:30:37.297Z,5.27
2023-05-04T00:33:05.020Z,5.27
2023-05-04T00:35:32.680Z,4.57
2023-05-04T00:38:00.281Z,5.07
2023-05-04T00:40:27.910Z,5.10
2023-05-04T00:42:55.604Z,4.97
2023-05-04T00:45:24.643Z,5.07
2023-05-04T00:47:52.513Z,5.60
2023-05-04T00:50:21.115Z,5.60
2023-05-04T00:52:50.078Z,5.30
2023-05-04T00:55:17.945Z,4.47
2023-05-04T00:57:45.737Z,4.60
2023-05-04T01:00:14.174Z,4.57
2023-05-04T01:02:43.372Z,4.73
2023-05-04T01:05:13.439Z,5.03
2023-05-04T01:07:48.856Z,5.60
2023-05-04T01:10:21.121Z,4.20
2023-05-04T01:12:53.110Z,4.23
2023-05-04T01:15:21.678Z,4.53
2023-05-04T01:17:50.691Z,4.13
2023-05-04T01:20:18.372Z,4.53
2023-05-04T01:22:47.785Z,4.23
2023-05-04T01:25:16.273Z,4.20
2023-05-04T01:27:47.857Z,4.37
2023-05-04T01:30:19.927Z,4.70
2023-05-04T01:32:48.703Z,4.97
2023-05-04T01:35:17.130Z,4.33
2023-05-04T01:37:44.835Z,4.57
2023-05-04T01:40:14.261Z,4.03
2023-05-04T01:42:41.904Z,4.63
2023-05-04T01:45:10.932Z,4.17
2023-05-04T01:47:38.763Z,4.17
2023-05-04T01:50:07.370Z,4.33
2023-05-04T01:52:34.997Z,4.43
2023-05-04T01:55:02.699Z,4.20
2023-05-04T01:57:31.730Z,4.90
2023-05-04T01:59:59.479Z,4.40
2023-05-04T02:02:27.184Z,4.00
2023-05-04T02:04:54.857Z,4.10
2023-05-04T02:07:22.529Z,4.47
2023-05-04T02:09:50.174Z,4.33
2023-05-04T02:12:17.794Z,4.30
2023-05-04T02:14:46.920Z,4.67
2023-05-04T02:17:14.545Z,4.50
2023-05-04T02:19:42.157Z,4.63
2023-05-04T02:22:09.947Z,5.23
2023-05-04T02:24:37.582Z,4.40
2023-05-04T02:27:05.293Z,5.07
2023-05-04T02:29:32.896Z,4.30
2023-05-04T02:32:01.965Z,5.70
2023-05-04T02:34:31.405Z,4.43
2023-05-04T02:36:59.047Z,4.53
2023-05-04T02:39:26.675Z,3.93
2023-05-04T02:41:54.300Z,4.13
2023-05-04T02:44:21.994Z,4.33
2023-05-04T02:46:49.700Z,4.03
2023-05-04T02:49:18.678Z,4.50
2023-05-04T02:51:47.355Z,4.17
2023-05-04T02:54:15.068Z,4.20
2023-05-04T02:56:42.725Z,4.13
2023-05-04T02:59:10.350Z,4.30
2023-05-04T03:01:38.036Z,4.10
2023-05-04T03:04:06.839Z,3.70
2023-05-04T03:06:36.202Z,4.63
2023-05-04T03:09:04.425Z,4.20
2023-05-04T03:11:32.080Z,4.27
2023-05-04T03:13:59.682Z,3.97
2023-05-04T03:16:27.323Z,4.37
2023-05-04T03:18:57.805Z,3.80
2023-05-04T03:21:25.492Z,4.23
2023-05-04T03:23:54.448Z,4.37
2023-05-04T03:26:22.238Z,4.30
2023-05-04T03:28:49.908Z,4.07
2023-05-04T03:31:17.562Z,4.37
2023-05-04T03:33:45.350Z,4.40
2023-05-04T03:36:12.947Z,5.00
2023-05-04T03:38:41.676Z,3.77
2023-05-04T03:41:11.621Z,4.17
2023-05-04T03:43:39.356Z,4.20
2023-05-04T03:46:07.128Z,3.83
2023-05-04T03:48:34.813Z,3.93
2023-05-04T03:51:02.819Z,3.80
2023-05-04T03:53:31.028Z,3.47
2023-05-04T03:55:58.643Z,4.00
2023-05-04T03:58:27.812Z,3.47
2023-05-04T04:00:55.441Z,4.37
2023-05-04T04:03:23.265Z,3.90
2023-05-04T04:05:51.294Z,4.33
2023-05-04T04:08:18.929Z,4.10
2023-05-04T04:10:46.578Z,3.50
2023-05-04T04:13:14.438Z,4.07
2023-05-04T04:15:45.589Z,3.70
2023-05-04T04:18:13.342Z,4.07
2023-05-04T04:20:41.024Z,3.80
2023-05-04T04:23:08.826Z,4.13
2023-05-04T04:25:36.526Z,4.10
2023-05-04T04:28:04.473Z,4.07
2023-05-04T04:30:32.069Z,3.73
2023-05-04T04:33:01.053Z,3.87
2023-05-04T04:35:28.750Z,4.17
2023-05-04T04:37:56.430Z,4.47
2023-05-04T04:40:24.064Z,4.13
2023-05-04T04:42:52.356Z,4.07
2023-05-04T04:45:20.470Z,3.67
2023-05-04T04:47:48.280Z,4.37
2023-05-04T04:50:17.488Z,3.60
2023-05-04T04:52:45.109Z,3.47
2023-05-04T04:55:13.217Z,4.00
2023-05-04T04:57:40.936Z,3.90
2023-05-04T05:00:10.405Z,4.90
2023-05-04T05:02:38.426Z,3.83
2023-05-04T05:05:07.018Z,3.17
2023-05-04T05:07:36.581Z,3.50
2023-05-04T05:10:05.116Z,3.83
2023-05-04T05:12:32.997Z,3.60
2023-05-04T05:15:00.696Z,3.40
2023-05-04T05:17:28.762Z,3.97
2023-05-04T05:19:56.391Z,3.33
2023-05-04T05:22:24.016Z,3.33
2023-05-04T05:24:53.053Z,3.20
2023-05-04T05:27:20.677Z,3.80
2023-05-04T05:29:48.293Z,3.73
2023-05-04T05:32:15.955Z,3.37
2023-05-04T05:34:43.565Z,3.33
2023-05-04T05:37:11.201Z,3.37
2023-05-04T05:39:38.804Z,2.73
2023-05-04T05:42:07.788Z,3.13
2023-05-04T05:44:37.334Z,3.10
2023-05-04T05:47:05.009Z,3.37
2023-05-04T05:49:32.932Z,3.27
2023-05-04T05:52:00.548Z,3.83
2023-05-04T05:54:28.458Z,3.00
2023-05-04T05:56:56.121Z,3.30
2023-05-04T05:59:25.153Z,3.40
2023-05-04T06:01:53.081Z,3.40
2023-05-04T06:04:20.884Z,3.10
2023-05-04T06:06:48.587Z,3.43
2023-05-04T06:09:16.893Z,2.90
2023-05-04T06:11:44.532Z,3.83
2023-05-04T06:14:12.178Z,3.23
2023-05-04T06:16:41.378Z,3.30
2023-05-04T06:19:09.109Z,2.90
2023-05-04T06:21:36.915Z,3.03
2023-05-04T06:24:04.853Z,3.13
2023-05-04T06:26:32.504Z,3.07
2023-05-04T06:29:00.436Z,2.90
2023-05-04T06:31:28.688Z,3.57
2023-05-04T06:33:57.974Z,3.03
2023-05-04T06:36:26.664Z,3.30
2023-05-04T06:38:55.572Z,2.87
2023-05-04T06:41:23.438Z,3.10
2023-05-04T06:43:51.119Z,2.83
2023-05-04T06:46:19.187Z,3.00
2023-05-04T06:48:46.924Z,3.03
2023-05-04T06:51:16.579Z,2.80
2023-05-04T06:53:44.344Z,3.00
2023-05-04T06:56:12.391Z,3.03
2023-05-04T06:58:40.074Z,2.97
2023-05-04T07:01:14.529Z,2.77
2023-05-04T07:03:43.919Z,2.80
2023-05-04T07:06:11.576Z,3.37
2023-05-04T07:08:40.598Z,2.83
2023-05-04T07:11:10.374Z,3.00
2023-05-04T07:13:39.331Z,2.67
2023-05-04T07:16:08.639Z,3.17
2023-05-04T07:18:36.552Z,2.77
2023-05-04T07:21:22.041Z,3.97
2023-05-04T07:23:54.989Z,2.90
2023-05-04T07:26:22.859Z,3.40
2023-05-04T07:28:50.584Z,3.20
2023-05-04T07:31:18.293Z,3.20
2023-05-04T07:33:46.111Z,3.20
2023-05-04T07:36:13.755Z,3.70
2023-05-04T07:38:41.695Z,3.53
2023-05-04T07:41:10.718Z,2.63
2023-05-04T07:43:38.483Z,3.05
2023-05-04T07:46:06.421Z,3.13
2023-05-04T07:48:37.650Z,3.20
2023-05-04T07:51:05.719Z,3.03
2023-05-04T07:53:34.062Z,3.53
2023-05-04T07:56:11.226Z,3.90
2023-05-04T07:58:38.989Z,2.97
2023-05-04T08:01:06.880Z,3.07
2023-05-04T08:03:34.539Z,3.03
2023-05-04T08:06:02.286Z,3.50
2023-05-04T08:08:30.026Z,3.10
2023-05-04T08:11:11.690Z,2.90
2023-05-04T08:13:48.325Z,2.93
2023-05-04T08:16:16.301Z,3.13
2023-05-04T08:18:44.022Z,3.30
2023-05-04T08:21:11.841Z,2.78
2023-05-04T08:23:39.588Z,3.13
2023-05-04T08:26:07.252Z,3.10
2023-05-04T08:28:37.606Z,3.43
2023-05-04T08:31:07.762Z,3.20
2023-05-04T08:33:35.917Z,3.67
2023-05-04T08:36:04.595Z,2.75
2023-05-04T08:38:32.553Z,3.25
2023-05-04T08:41:03.150Z,3.00
2023-05-04T08:43:31.042Z,3.05
2023-05-04T08:45:58.792Z,3.30
2023-05-04T08:48:27.955Z,3.35
2023-05-04T08:50:56.188Z,2.80
2023-05-04T08:53:24.371Z,3.42
2023-05-04T08:55:56.041Z,3.58
2023-05-04T08:58:26.031Z,3.22
2023-05-04T09:00:54.012Z,7.65
2023-05-04T09:03:22.186Z,3.17
2023-05-04T09:05:52.610Z,3.40
2023-05-04T09:08:21.018Z,2.92
2023-05-04T09:10:48.707Z,3.15
2023-05-04T09:13:16.415Z,3.72
2023-05-04T09:15:44.178Z,3.35
2023-05-04T09:18:11.994Z,2.67
2023-05-04T09:20:47.133Z,2.88
2023-05-04T09:23:18.038Z,2.70
2023-05-04T09:25:49.759Z,3.03
2023-05-04T09:28:19.109Z,2.93
2023-05-04T09:30:48.369Z,3.07
2023-05-04T09:33:16.534Z,2.77
2023-05-04T09:35:45.332Z,3.20
2023-05-04T09:38:13.044Z,3.43
2023-05-04T09:40:43.339Z,3.20
2023-05-04T09:43:13.377Z,2.97
2023-05-04T09:45:44.647Z,2.97
2023-05-04T09:48:25.596Z,2.60
2023-05-04T09:50:54.726Z,2.72
2023-05-04T09:53:24.806Z,3.10
2023-05-04T09:56:07.317Z,3.15
2023-05-04T09:58:36.353Z,2.90
2023-05-04T10:01:04.670Z,2.83
2023-05-04T10:03:33.199Z,2.85
2023-05-04T10:06:04.131Z,3.13
2023-05-04T10:08:33.656Z,3.40
2023-05-04T10:11:02.819Z,3.50
2023-05-04T10:13:30.562Z,3.27
2023-05-04T10:16:12.792Z,3.00
2023-05-04T10:19:01.424Z,3.08
2023-05-04T10:21:34.274Z,2.73
2023-05-04T10:24:30.539Z,3.00
2023-05-04T10:27:11.780Z,3.10
2023-05-04T10:29:40.584Z,2.80
2023-05-04T10:32:18.999Z,3.50
2023-05-04T10:34:46.857Z,2.93
2023-05-04T10:37:18.477Z,3.15
2023-05-04T10:39:52.677Z,2.97
2023-05-04T10:42:22.856Z,3.55
2023-05-04T10:44:52.514Z,2.83
2023-05-04T10:47:29.179Z,2.88
2023-05-04T10:50:04.650Z,3.08
2023-05-04T10:52:33.313Z,2.95
2023-05-04T10:55:02.063Z,3.17
2023-05-04T10:57:31.368Z,2.88
2023-05-04T10:59:59.838Z,3.28
2023-05-04T11:02:30.462Z,2.95
2023-05-04T11:05:04.218Z,2.85
2023-05-04T11:07:37.641Z,3.08
2023-05-04T11:10:06.511Z,3.15
2023-05-04T11:12:36.135Z,2.85
2023-05-04T11:15:08.781Z,3.20
2023-05-04T11:17:46.438Z,2.70
2023-05-04T11:20:21.572Z,3.00
2023-05-04T11:22:49.575Z,3.17
2023-05-04T11:25:17.955Z,3.55
2023-05-04T11:27:50.066Z,3.13
2023-05-04T11:30:18.113Z,3.17
2023-05-04T11:32:46.884Z,3.15
2023-05-04T11:35:17.942Z,3.58
2023-05-04T11:37:46.866Z,3.30
2023-05-04T11:40:16.467Z,3.43
2023-05-04T11:42:44.757Z,2.88
2023-05-04T11:45:18.196Z,2.72
2023-05-04T11:47:47.172Z,2.63
2023-05-04T11:50:17.162Z,3.20
2023-05-04T11:52:45.662Z,2.92
2023-05-04T11:55:25.120Z,2.70
2023-05-04T11:57:57.880Z,3.20
2023-05-04T12:00:38.791Z,2.65
2023-05-04T12:03:07.524Z,2.92
2023-05-04T12:05:35.988Z,3.33
2023-05-04T12:08:04.558Z,2.92
2023-05-04T12:10:34.833Z,2.88
2023-05-04T12:13:02.698Z,3.42
2023-05-04T12:15:32.424Z,3.25
2023-05-04T12:18:03.013Z,2.85
2023-05-04T12:20:31.793Z,3.05
2023-05-04T12:23:06.860Z,2.70
2023-05-04T12:25:39.124Z,2.97
2023-05-04T12:28:12.026Z,2.90
2023-05-04T12:30:39.698Z,2.85
2023-05-04T12:33:08.778Z,3.15
2023-05-04T12:35:36.720Z,2.78
2023-05-04T12:38:04.360Z,3.20
2023-05-04T12:40:32.176Z,2.80
2023-05-04T12:42:59.818Z,2.90
2023-05-04T12:45:27.462Z,2.88
2023-05-04T12:47:55.111Z,2.83
2023-05-04T12:50:24.366Z,2.90
2023-05-04T12:52:51.969Z,3.08
2023-05-04T12:55:19.618Z,2.95
2023-05-04T12:57:47.229Z,2.70
2023-05-04T13:00:16.331Z,2.92
2023-05-04T13:02:44.444Z,3.03
2023-05-04T13:05:13.103Z,2.97
2023-05-04T13:07:42.179Z,3.05
2023-05-04T13:10:10.576Z,2.80
2023-05-04T13:12:38.892Z,2.92
2023-05-04T13:15:07.509Z,2.97
2023-05-04T13:17:35.603Z,2.90
2023-05-04T13:20:05.974Z,3.25
2023-05-04T13:22:34.126Z,2.90
2023-05-04T13:25:03.059Z,2.90
2023-05-04T13:27:30.930Z,2.97
2023-05-04T13:30:00.984Z,2.45
2023-05-04T13:32:28.828Z,2.95
2023-05-04T13:34:56.551Z,2.63
2023-05-04T13:37:24.265Z,2.70
2023-05-04T13:39:52.023Z,2.80
2023-05-04T13:42:21.180Z,2.60
2023-05-04T13:44:48.919Z,2.60
2023-05-04T13:47:17.537Z,2.60
2023-05-04T13:49:45.285Z,2.58
2023-05-04T13:52:13.498Z,3.03
2023-05-04T13:54:41.378Z,2.90
2023-05-04T13:57:09.044Z,2.63
2023-05-04T13:59:38.024Z,3.05
2023-05-04T14:02:05.874Z,2.75
2023-05-04T14:04:33.585Z,2.97
2023-05-04T14:07:01.266Z,2.58
2023-05-04T14:09:29.169Z,2.90
2023-05-04T14:11:56.857Z,2.80
2023-05-04T14:14:24.474Z,2.65
2023-05-04T14:16:53.597Z,3.17
2023-05-04T14:19:21.375Z,2.30
2023-05-04T14:21:49.023Z,3.05
2023-05-04T14:24:16.646Z,2.45
2023-05-04T14:26:44.329Z,2.78
2023-05-04T14:29:11.967Z,3.03
2023-05-04T14:31:39.712Z,2.83
2023-05-04T14:34:08.764Z,2.67
2023-05-04T14:36:36.605Z,2.30
2023-05-04T14:39:04.435Z,2.80
2023-05-04T14:41:33.600Z,2.90
2023-05-04T14:44:01.464Z,3.10
2023-05-04T14:46:29.959Z,3.00
2023-05-04T14:48:57.711Z,2.67
2023-05-04T14:51:33.772Z,2.70
2023-05-04T14:54:02.007Z,2.83
2023-05-04T14:56:29.659Z,2.38
2023-05-04T14:58:57.987Z,2.92
2023-05-04T15:01:26.082Z,2.95
2023-05-04T15:03:53.958Z,3.00
2023-05-04T15:06:21.698Z,2.70
2023-05-04T15:08:51.148Z,2.75
2023-05-04T15:11:19.448Z,3.08
2023-05-04T15:13:47.185Z,2.97
2023-05-04T15:16:18.584Z,3.00
2023-05-04T15:18:46.291Z,2.58
2023-05-04T15:21:14.129Z,2.60
2023-05-04T15:23:41.747Z,2.42
2023-05-04T15:26:10.767Z,2.50
2023-05-04T15:28:38.383Z,2.75
2023-05-04T15:31:07.321Z,2.60
2023-05-04T15:33:35.048Z,2.60
2023-05-04T15:36:07.083Z,2.92
2023-05-04T15:38:34.841Z,2.65
2023-05-04T15:41:02.869Z,2.65
2023-05-04T15:43:32.543Z,2.65
2023-05-04T15:46:00.346Z,2.60
2023-05-04T15:48:28.390Z,2.53
2023-05-04T15:50:56.615Z,2.70
2023-05-04T15:53:24.299Z,7.93
2023-05-04T15:55:52.311Z,15.07
2023-05-04T15:58:20.166Z,20.50
2023-05-04T16:00:49.752Z,12.18
2023-05-04T16:03:17.584Z,3.45
2023-05-04T16:05:45.479Z,2.78
2023-05-04T16:08:13.484Z,2.70
2023-05-04T16:10:41.128Z,2.50
2023-05-04T16:13:10.623Z,2.75
2023-05-04T16:15:39.806Z,2.80
2023-05-04T16:18:08.881Z,2.72
2023-05-04T16:20:36.657Z,2.60
2023-05-04T16:23:04.346Z,2.70
2023-05-04T16:25:32.085Z,2.78
2023-05-04T16:27:59.738Z,2.42
2023-05-04T16:30:34.353Z,2.55
2023-05-04T16:33:02.577Z,2.40
2023-05-04T16:35:32.712Z,3.03
2023-05-04T16:38:00.481Z,3.00
2023-05-04T16:40:28.519Z,2.95
2023-05-04T16:42:56.142Z,2.88
2023-05-04T16:45:25.573Z,2.47
2023-05-04T16:47:53.341Z,2.50
2023-05-04T16:50:21.003Z,2.60
2023-05-04T16:52:50.049Z,2.42
2023-05-04T16:55:17.761Z,2.55
2023-05-04T16:57:45.870Z,3.60
2023-05-04T17:00:14.686Z,3.60
2023-05-04T17:02:42.616Z,3.70
2023-05-04T17:05:11.221Z,3.50
2023-05-04T17:07:40.097Z,3.75
2023-05-04T17:10:10.772Z,4.07
2023-05-04T17:12:38.707Z,4.00
2023-05-04T17:15:07.620Z,5.15
2023-05-04T17:17:35.333Z,4.85
2023-05-04T17:20:03.671Z,3.47
2023-05-04T17:22:31.445Z,4.43
2023-05-04T17:24:59.154Z,4.33
2023-05-04T17:27:28.180Z,4.80
2023-05-04T17:29:55.912Z,4.95
2023-05-04T17:32:23.717Z,4.80
2023-05-04T17:34:51.386Z,4.50
2023-05-04T17:37:19.276Z,3.90
2023-05-04T17:39:47.185Z,4.80
2023-05-04T17:42:15.841Z,5.23
2023-05-04T17:44:44.984Z,4.83
2023-05-04T17:47:12.652Z,4.43
2023-05-04T17:49:40.338Z,5.07
2023-05-04T17:52:08.007Z,4.33
2023-05-04T17:54:35.815Z,5.07
2023-05-04T17:57:03.429Z,4.50
2023-05-04T17:59:31.451Z,5.00
2023-05-04T18:02:00.514Z,4.80
2023-05-04T18:04:31.315Z,4.67
2023-05-04T18:06:59.068Z,5.37
2023-05-04T18:09:26.888Z,4.63
2023-05-04T18:11:54.539Z,4.43
2023-05-04T18:14:22.275Z,4.87
2023-05-04T18:16:49.895Z,4.90
2023-05-04T18:19:23.794Z,5.40
2023-05-04T18:21:51.722Z,5.60
2023-05-04T18:24:19.562Z,4.30
2023-05-04T18:26:48.262Z,5.00
2023-05-04T18:29:19.502Z,4.83
2023-05-04T18:31:47.679Z,4.50
2023-05-04T18:34:15.496Z,4.13
2023-05-04T18:36:44.901Z,4.70
2023-05-04T18:39:13.550Z,4.47
2023-05-04T18:41:41.431Z,4.90
2023-05-04T18:44:09.979Z,4.97
2023-05-04T18:46:37.744Z,4.73
2023-05-04T18:49:05.658Z,4.90
2023-05-04T18:51:33.286Z,5.23
2023-05-04T18:54:02.323Z,5.10
2023-05-04T18:56:30.069Z,5.20
2023-05-04T18:58:57.694Z,5.20
2023-05-04T19:01:26.400Z,5.30
2023-05-04T19:03:54.107Z,5.10
2023-05-04T19:06:21.794Z,5.57
2023-05-04T19:08:49.464Z,5.30
2023-05-04T19:11:18.608Z,5.83
2023-05-04T19:13:46.190Z,5.13
2023-05-04T19:16:14.151Z,5.17
2023-05-04T19:18:43.170Z,5.80
2023-05-04T19:21:10.859Z,5.63
2023-05-04T19:23:38.568Z,4.87
2023-05-04T19:26:06.403Z,4.70
2023-05-04T19:28:35.502Z,4.50
2023-05-04T19:31:03.140Z,5.20
2023-05-04T19:33:44.557Z,4.40
2023-05-04T19:36:15.270Z,4.17
2023-05-04T19:38:42.929Z,4.93
2023-05-04T19:41:10.646Z,4.90
2023-05-04T19:43:39.636Z,4.17
2023-05-04T19:46:08.074Z,4.60
2023-05-04T19:48:35.759Z,4.93
2023-05-04T19:51:04.824Z,5.00
2023-05-04T19:53:32.463Z,4.80
2023-05-04T19:56:00.222Z,4.90
2023-05-04T19:58:28.332Z,4.00
2023-05-04T20:00:57.814Z,4.00
2023-05-04T20:03:25.730Z,4.10
2023-05-04T20:05:53.996Z,4.30
2023-05-04T20:08:21.708Z,4.00
2023-05-04T20:10:49.339Z,4.20
2023-05-04T20:13:17.073Z,4.03
2023-05-04T20:15:44.976Z,4.00
2023-05-04T20:18:14.049Z,4.30
2023-05-04T20:20:41.790Z,4.00
2023-05-04T20:23:09.487Z,4.37
2023-05-04T20:25:37.211Z,3.97
2023-05-04T20:28:05.105Z,3.60
2023-05-04T20:30:32.805Z,4.90
2023-05-04T20:33:00.515Z,4.67
2023-05-04T20:35:29.621Z,4.00
2023-05-04T20:37:57.915Z,4.30
2023-05-04T20:40:25.794Z,4.50
2023-05-04T20:42:53.588Z,4.20
2023-05-04T20:45:21.430Z,4.27
2023-05-04T20:47:49.342Z,4.00
2023-05-04T20:50:17.915Z,4.30
2023-05-04T20:52:47.019Z,4.77
2023-05-04T20:55:15.188Z,4.37
2023-05-04T20:57:43.052Z,4.50
2023-05-04T21:00:12.246Z,4.10
2023-05-04T21:02:40.066Z,4.53
2023-05-04T21:05:08.691Z,4.00
2023-05-04T21:07:36.336Z,4.07
2023-05-04T21:10:06.313Z,4.80
2023-05-04T21:12:34.405Z,4.67
2023-05-04T21:15:02.040Z,4.60
2023-05-04T21:17:29.671Z,4.10
2023-05-04T21:19:57.454Z,4.67
2023-05-04T21:22:25.192Z,4.63
2023-05-04T21:24:52.851Z,4.43
2023-05-04T21:27:21.876Z,4.90
2023-05-04T21:29:49.502Z,4.30
2023-05-04T21:32:17.151Z,4.40
2023-05-04T21:34:44.833Z,5.10
2023-05-04T21:37:12.458Z,4.73
2023-05-04T21:39:40.143Z,4.20
2023-05-04T21:42:07.820Z,4.80
2023-05-04T21:44:36.824Z,4.70
2023-05-04T21:47:04.587Z,4.50
2023-05-04T21:49:32.243Z,3.70
2023-05-04T21:51:59.918Z,4.13
2023-05-04T21:54:27.538Z,4.23
2023-05-04T21:56:55.345Z,4.17
2023-05-04T21:59:22.963Z,4.57
2023-05-04T22:01:51.885Z,4.53
2023-05-04T22:04:19.660Z,4.07
2023-05-04T22:06:48.185Z,4.30
2023-05-04T22:09:15.914Z,4.50
2023-05-04T22:11:43.554Z,4.47
2023-05-04T22:14:11.170Z,4.20
2023-05-04T22:16:38.908Z,4.20
2023-05-04T22:19:07.917Z,4.40
2023-05-04T22:21:36.840Z,3.93
2023-05-04T22:24:06.719Z,4.50
2023-05-04T22:26:34.335Z,4.10
2023-05-04T22:29:01.996Z,3.70
2023-05-04T22:31:29.683Z,3.93
2023-05-04T22:33:57.330Z,4.20
2023-05-04T22:36:26.604Z,3.70
2023-05-04T22:38:54.377Z,3.40
2023-05-04T22:41:22.640Z,3.73
2023-05-04T22:43:50.595Z,3.53
2023-05-04T22:46:18.803Z,3.63
2023-05-04T22:48:47.548Z,3.90
2023-05-04T22:51:15.564Z,3.90
2023-05-04T22:53:44.882Z,3.40
2023-05-04T22:56:12.660Z,3.30
2023-05-04T22:58:40.740Z,3.17
2023-05-04T23:01:10.521Z,3.27
2023-05-04T23:03:38.945Z,4.07
2023-05-04T23:06:08.588Z,3.17
2023-05-04T23:08:36.443Z,3.10
2023-05-04T23:11:14.152Z,3.33
2023-05-04T23:13:41.890Z,3.17
2023-05-04T23:16:09.566Z,3.57
2023-05-04T23:18:37.217Z,3.43
2023-05-04T23:21:05.035Z,3.40
2023-05-04T23:23:32.657Z,3.30
2023-05-04T23:26:00.326Z,3.10
2023-05-04T23:28:29.289Z,3.10
2023-05-04T23:30:56.933Z,3.30
2023-05-04T23:33:24.669Z,3.10
2023-05-04T23:35:55.372Z,2.90
2023-05-04T23:38:23.734Z,3.27
2023-05-04T23:40:52.441Z,3.20
2023-05-04T23:43:20.315Z,3.20
2023-05-04T23:45:49.335Z,3.60
2023-05-04T23:48:16.992Z,3.10
2023-05-04T23:50:53.927Z,3.23
2023-05-04T23:53:21.668Z,3.67
2023-05-04T23:55:57.668Z,3.60
2023-05-04T23:58:25.750Z,3.43
